ADDS METAR Data INFO
IDs: Format: Raw Decoded Include TAF

Data at: 1156 UTC 23 Jun 2018

KDCY 231135Z AUTO 23006KT 7SM BKN007 OVC050 A2979 RMK AO2
KDCY 231115Z AUTO 23004KT 5SM HZ SCT007 OVC050 A2978 RMK AO2
KDCY 231055Z AUTO 25004KT 5SM HZ OVC050 A2977 RMK AO2
KDCY 231035Z AUTO 25003KT 5SM HZ SCT005 OVC050 A2977 RMK AO2
KDCY 231015Z AUTO 26004KT 7SM BKN005 BKN014 OVC050 A2977 RMK AO2
KDCY 230955Z AUTO 25005KT 7SM BKN005 BKN010 OVC025 A2977 RMK AO2
KDCY 230935Z AUTO 25005KT 7SM OVC005 A2976 RMK AO2
KDCY 230915Z AUTO 24005KT 7SM OVC005 A2976 RMK AO2
KDCY 230855Z AUTO 25004KT 7SM -RA OVC005 A2974 RMK AO2
KDCY 230835Z AUTO 25004KT 7SM OVC005 A2974 RMK AO2
KDCY 230815Z AUTO 25004KT 7SM OVC005 A2975 RMK AO2
KDCY 230755Z AUTO 26004KT 10SM OVC005 A2974 RMK AO2
KDCY 230735Z AUTO 26005KT 10SM OVC005 A2974 RMK AO2
KDCY 230715Z AUTO 26007KT 10SM OVC005 A2972 RMK AO2
KDCY 230655Z AUTO 27005KT 10SM OVC005 A2973 RMK AO2
KDCY 230635Z AUTO 27005KT 10SM OVC005 A2973 RMK AO2
KDCY 230615Z AUTO 26006KT 10SM OVC005 A2973 RMK AO2
KDCY 230555Z AUTO 26007KT 10SM OVC007 A2973 RMK AO2
KDCY 230535Z AUTO 26006KT 10SM BKN007 A2973 RMK AO2
KDCY 230515Z AUTO 24005KT 10SM BKN007 BKN050 A2973 RMK AO2
KDCY 230455Z AUTO 26004KT 10SM SCT032 SCT042 BKN050 A2973 RMK AO2
KDCY 230435Z AUTO 23005KT 10SM OVC030 A2973 RMK AO2
KDCY 230415Z AUTO 24004KT 10SM BKN030 A2973 RMK AO2
KDCY 230355Z AUTO 20003KT 10SM CLR A2972 RMK AO2
KDCY 230335Z AUTO 00000KT 10SM SCT030 SCT040 SCT049 A2971 RMK AO2
KDCY 230315Z AUTO 00000KT 10SM SCT030 BKN038 BKN049 A2972 RMK AO2
KDCY 230255Z AUTO 00000KT 10SM SCT030 A2972 RMK AO2
KDCY 230235Z AUTO 00000KT 10SM CLR A2971 RMK AO2
KDCY 230215Z AUTO 21004KT 10SM CLR 19/18 A2970 RMK AO2 T01920182
KDCY 230155Z AUTO 00000KT 10SM SCT120 20/19 A2969 RMK AO2 T01960186
KDCY 230135Z AUTO 00000KT 10SM SCT020 SCT120 20/19 A2969 RMK AO2 T02010190
KDCY 230115Z AUTO 25003KT 10SM BKN020 BKN026 21/19 A2969 RMK AO2 T02060188
KDCY 230055Z AUTO 24003KT 10SM SCT022 SCT027 22/18 A2968 RMK AO2 LTG DSNT E T02150182
KDCY 230035Z AUTO 00000KT 10SM SCT023 SCT029 22/18 A2968 RMK AO2 LTG DSNT E T02160178
KDCY 230015Z AUTO 29006KT 10SM SCT018 BKN026 22/18 A2968 RMK AO2 LTG DSNT E T02150177
KDCY 222355Z AUTO 23004KT 10SM SCT100 SCT110 22/18 A2967 RMK AO2 LTG DSNT NE P0001 60029 T02160184 10255 20192
KDCY 222335Z AUTO 25006KT 10SM SCT055 SCT090 BKN110 22/19 A2967 RMK AO2 LTG DSNT W P0001 T02210185
KDCY 222315Z AUTO 25009KT 10SM DZ SCT055 BKN070 OVC110 22/20 A2966 RMK AO2 P0001 T02200196
KDCY 222255Z AUTO 27008KT 10SM RA SCT031 SCT055 BKN075 24/18 A2966 RMK AO2 LTG DSNT N T02360177
KDCY 222235Z AUTO 26005KT 10SM SCT065 SCT085 24/18 A2966 RMK AO2 T02420176
KDCY 222215Z AUTO 24008KT 10SM SCT035 SCT065 25/18 A2966 RMK AO2 LTG DSNT W THRU N T02450178
KDCY 222155Z AUTO 26004KT 10SM SCT033 SCT040 BKN050 24/18 A2965 RMK AO2 T02380178
KDCY 222135Z AUTO 26007KT 10SM SCT030 SCT038 SCT048 25/18 A2966 RMK AO2 T02460177
KDCY 222115Z AUTO 28006KT 10SM SCT027 SCT033 25/18 A2966 RMK AO2 LTG DSNT SE T02530175
KDCY 222055Z AUTO 27004KT 10SM SCT019 SCT090 24/18 A2965 RMK AO2 LTG DSNT E 60028 T02430181
KDCY 222035Z AUTO 25004KT 10SM SCT019 SCT050 SCT060 24/19 A2966 RMK AO2 LTG DSNT W T02400186
KDCY 222015Z AUTO 27004KT 10SM SCT065 SCT090 SCT120 23/19 A2966 RMK AO2 LTG DSNT E W AND NW T02300191
KDCY 221955Z AUTO 00000KT 10SM SCT019 BKN050 OVC100 21/20 A2966 RMK AO2 LTG DSNT E P0028 T02140197
KDCY 221935Z AUTO 33003KT 10SM -RA SCT011 BKN026 OVC060 20/18 A2967 RMK AO2 P0028 T02010184
KDCY 221915Z AUTO 31019KT 4SM RA SCT014 OVC022 21/19 A2967 RMK AO2 P0002 T02080191
KDCY 221855Z AUTO 20005KT 10SM BKN022 BKN031 OVC041 23/18 A2967 RMK AO2 T02310182
KDCY 221835Z AUTO 00000KT 10SM SCT024 SCT028 BKN042 24/16 A2967 RMK AO2 T02370164
KDCY 221815Z AUTO 00000KT 10SM SCT024 BKN030 BKN070 24/17 A2967 RMK AO2 T02370169
KDCY 221755Z AUTO 23003KT 10SM SCT019 SCT024 BKN030 24/17 A2967 RMK AO2 LTG DSNT E 60019 T02380173
KDCY 221735Z AUTO 17005KT 10SM BKN017 BKN027 BKN032 23/18 A2968 RMK AO2 LTG DSNT NW T02300181
KDCY 221715Z AUTO 18005KT 10SM OVC015 23/18 A2969 RMK AO2 T02280181
KDCY 221655Z AUTO 12005KT 10SM BKN015 OVC024 22/18 A2969 RMK AO2 LTG DSNT W T02190179
KDCY 221635Z AUTO 16004KT 10SM BKN017 OVC026 22/18 A2970 RMK AO2 T02170177
KDCY 221615Z AUTO 14006KT 10SM BKN015 OVC020 22/18 A2970 RMK AO2 T02150175
KDCY 221555Z AUTO 10004KT 10SM OVC012 21/18 A2970 RMK AO2 T02140179
KDCY 221535Z AUTO 12007KT 10SM BKN012 BKN017 BKN085 21/18 A2971 RMK AO2 LTG DSNT E T02090183
KDCY 221515Z AUTO 14005KT 10SM BKN009 BKN060 BKN085 20/18 A2971 RMK AO2 T02030181
KDCY 221455Z AUTO 12004KT 10SM SCT007 BKN030 OVC100 A2971 RMK AO2 P0001 60019
KDCY 221435Z AUTO 13003KT 10SM -RA SCT025 BKN080 OVC100 A2971 RMK AO2 LTG DSNT SE P0001
KDCY 221415Z AUTO 12004KT 10SM SCT007 SCT039 BKN095 A2972 RMK AO2 P0001
KDCY 221355Z AUTO 00000KT 7SM -RA SCT008 BKN085 OVC095 A2972 RMK AO2 P0018
KDCY 221335Z AUTO 00000KT 2 1/2SM RA SCT065 BKN080 OVC090 A2973 RMK AO2 LTG DSNT S P0013
KDCY 221315Z AUTO 22004KT 5SM RA SCT048 BKN060 OVC090 A2973 RMK AO2 P0004
KDCY 221255Z AUTO 00000KT 10SM BKN060 BKN070 OVC085 A2972 RMK AO2 LTG DSNT S
KDCY 221235Z AUTO 00000KT 10SM -RA SCT070 OVC085 A2972 RMK AO2
KDCY 221215Z AUTO 00000KT 10SM -DZ SCT070 BKN085 OVC110 A2972 RMK AO2
KDCY 221155Z AUTO 21008KT 7SM RA SCT055 SCT070 OVC095 A2972 RMK AO2 70007
KDCY 221135Z AUTO 22005KT 10SM SCT055 BKN070 OVC085 A2972 RMK AO2
KDCY 221115Z AUTO 15004KT 10SM SCT070 BKN085 OVC110 A2972 RMK AO2
KDCY 221055Z AUTO 17004KT 10SM BKN110 A2971 RMK AO2
KDCY 221035Z AUTO 15003KT 10SM CLR A2970 RMK AO2
KDCY 221015Z AUTO 00000KT 10SM SCT120 A2970 RMK AO2
KDCY 220955Z AUTO 20003KT 10SM CLR A2969 RMK AO2
KDCY 220935Z AUTO 00000KT 10SM CLR A2969 RMK AO2
KDCY 220915Z AUTO 17003KT 10SM CLR A2969 RMK AO2
KDCY 220855Z AUTO 17003KT 10SM CLR A2969 RMK AO2
KDCY 220835Z AUTO 00000KT 10SM SCT110 A2969 RMK AO2
KDCY 220815Z AUTO 19003KT 10SM SCT120 A2969 RMK AO2
KDCY 220755Z AUTO 16003KT 10SM SCT120 A2968 RMK AO2
KDCY 220735Z AUTO 16003KT 10SM CLR A2968 RMK AO2
KDCY 220715Z AUTO 14004KT 10SM CLR A2968 RMK AO2
KDCY 220655Z AUTO 16003KT 10SM CLR 20/19 A2968 RMK AO2 T01950185
KDCY 220635Z AUTO 00000KT 10SM CLR 20/19 A2969 RMK AO2 T01980188
KDCY 220615Z AUTO 25003KT 10SM CLR 20/19 A2969 RMK AO2 T02010190
KDCY 220555Z AUTO 22003KT 10SM CLR 20/19 A2970 RMK AO2 T02040194 10230 20204
KDCY 220535Z AUTO 24003KT 10SM CLR 21/20 A2970 RMK AO2 LTG DSNT NE AND E T02060196
KDCY 220515Z AUTO 24003KT 10SM CLR 21/20 A2971 RMK AO2 T02100198
KDCY 220455Z AUTO 25004KT 10SM SCT020 SCT028 22/20 A2971 RMK AO2 LTG DSNT NE T02160202
KDCY 220435Z AUTO 27003KT 10SM SCT018 BKN026 OVC032 22/21 A2972 RMK AO2 T02160206
KDCY 220415Z AUTO 00000KT 7SM SCT018 BKN024 OVC048 22/21 A2972 RMK AO2 T02170206
KDCY 220355Z AUTO 00000KT 10SM SCT016 BKN049 OVC085 A2971 RMK AO2
KDCY 220335Z AUTO 00000KT 10SM OVC018 22/21 A2972 RMK AO2 T02180207
KDCY 220315Z AUTO 00000KT 10SM BKN020 BKN026 OVC060 22/21 A2972 RMK AO2 T02180207
KDCY 220255Z AUTO 00000KT 10SM SCT024 SCT044 BKN110 22/21 A2972 RMK AO2 T02190208
KDCY 220235Z AUTO 03003KT 10SM SCT110 22/21 A2971 RMK AO2 T02190208
KDCY 220215Z AUTO 00000KT 10SM CLR 22/21 A2970 RMK AO2 T02210211
KDCY 220155Z AUTO 00000KT 10SM VCTS CLR 22/21 A2969 RMK AO2 T02220212
KDCY 220135Z AUTO 00000KT 10SM CLR 23/21 A2969 RMK AO2 LTG DSNT N AND NW T02250214
KDCY 220115Z AUTO 00000KT 10SM CLR 23/21 A2969 RMK AO2 T02270211
KDCY 220055Z AUTO 00000KT 10SM CLR 23/20 A2970 RMK AO2 T02290198
KDCY 220035Z AUTO 00000KT 10SM SCT049 23/20 A2970 RMK AO2 T02280198
KDCY 220015Z AUTO 00000KT 10SM SCT027 SCT031 SCT038 23/19 A2970 RMK AO2 LTG DSNT N T02290193